createdAt,value
2023-02-19T00:01:41.722Z,3.15
2023-02-19T00:04:19.386Z,3.22
2023-02-19T00:06:46.533Z,3.53
2023-02-19T00:09:14.445Z,2.92
2023-02-19T00:11:41.416Z,3.78
2023-02-19T00:14:08.371Z,3.80
2023-02-19T00:16:37.064Z,3.10
2023-02-19T00:19:06.744Z,3.45
2023-02-19T00:21:33.576Z,2.97
2023-02-19T00:24:02.184Z,3.08
2023-02-19T00:26:29.114Z,2.80
2023-02-19T00:28:56.516Z,3.72
2023-02-19T00:31:27.112Z,3.65
2023-02-19T00:33:56.654Z,3.28
2023-02-19T00:36:23.810Z,3.20
2023-02-19T00:38:50.945Z,3.03
2023-02-19T00:41:21.410Z,3.42
2023-02-19T00:43:59.235Z,3.40
2023-02-19T00:46:33.919Z,2.90
2023-02-19T00:49:01.063Z,3.25
2023-02-19T00:51:30.528Z,3.20
2023-02-19T00:53:57.584Z,3.50
2023-02-19T00:56:24.594Z,3.20
2023-02-19T00:58:51.443Z,2.90
2023-02-19T01:01:18.522Z,3.70
2023-02-19T01:03:45.456Z,3.90
2023-02-19T01:06:13.360Z,3.80
2023-02-19T01:08:40.199Z,3.15
2023-02-19T01:11:07.725Z,3.10
2023-02-19T01:13:34.865Z,4.15
2023-02-19T01:16:11.250Z,4.32
2023-02-19T01:18:38.552Z,3.53
2023-02-19T01:21:07.395Z,3.50
2023-02-19T01:23:34.506Z,3.53
2023-02-19T01:26:05.229Z,3.25
2023-02-19T01:28:32.189Z,3.72
2023-02-19T01:31:03.207Z,4.28
2023-02-19T01:33:30.149Z,3.83
2023-02-19T01:35:57.009Z,3.80
2023-02-19T01:38:23.884Z,3.65
2023-02-19T01:40:58.045Z,3.60
2023-02-19T01:43:24.936Z,3.10
2023-02-19T01:45:52.039Z,3.50
2023-02-19T01:48:18.900Z,3.45
2023-02-19T01:50:51.296Z,3.35
2023-02-19T01:55:46.733Z,3.25
2023-02-19T01:58:14.645Z,3.65
2023-02-19T02:00:41.487Z,3.10
2023-02-19T02:03:08.433Z,3.40
2023-02-19T02:06:04.972Z,3.33
2023-02-19T02:08:50.415Z,3.40
2023-02-19T02:11:20.638Z,3.20
2023-02-19T02:13:47.535Z,3.45
2023-02-19T02:16:23.952Z,3.17
2023-02-19T02:19:16.017Z,3.28
2023-02-19T02:22:02.672Z,3.47
2023-02-19T02:24:43.643Z,3.50
2023-02-19T02:27:26.333Z,3.80
2023-02-19T02:30:18.585Z,3.70
2023-02-19T02:33:04.145Z,3.38
2023-02-19T02:35:35.479Z,3.22
2023-02-19T02:38:04.691Z,4.10
2023-02-19T02:40:32.037Z,3.85
2023-02-19T02:43:00.836Z,4.05
2023-02-19T02:45:38.148Z,3.03
2023-02-19T02:48:35.327Z,3.40
2023-02-19T02:51:05.232Z,3.97
2023-02-19T02:54:06.854Z,3.60
2023-02-19T02:56:34.244Z,3.03
2023-02-19T02:59:01.866Z,3.30
2023-02-19T03:01:56.345Z,3.50
2023-02-19T03:05:03.613Z,3.00
2023-02-19T03:07:49.527Z,3.33
2023-02-19T03:10:39.980Z,3.67
2023-02-19T03:13:28.351Z,3.22
2023-02-19T03:16:20.701Z,3.00
2023-02-19T03:19:08.659Z,3.58
2023-02-19T03:21:38.141Z,3.13
2023-02-19T03:24:26.872Z,2.85
2023-02-19T03:26:54.106Z,3.80
2023-02-19T03:29:23.869Z,2.60
2023-02-19T03:32:02.010Z,3.10
2023-02-19T03:34:32.698Z,3.40
2023-02-19T03:37:09.632Z,3.15
2023-02-19T03:39:44.257Z,3.17
2023-02-19T03:42:35.199Z,3.20
2023-02-19T03:45:26.470Z,3.53
2023-02-19T03:48:18.512Z,4.32
2023-02-19T03:51:13.116Z,2.70
2023-02-19T03:53:58.047Z,3.20
2023-02-19T03:56:43.278Z,2.63
2023-02-19T03:59:24.254Z,3.30
2023-02-19T04:02:03.254Z,2.90
2023-02-19T04:05:05.329Z,3.00
2023-02-19T04:07:33.567Z,2.42
2023-02-19T04:10:00.402Z,2.83
2023-02-19T04:12:27.296Z,2.60
2023-02-19T04:15:06.366Z,2.63
2023-02-19T04:17:37.931Z,3.05
2023-02-19T04:20:07.741Z,2.60
2023-02-19T04:22:36.011Z,2.90
2023-02-19T04:25:02.895Z,2.50
2023-02-19T04:27:29.796Z,2.60
2023-02-19T04:29:56.672Z,3.00
2023-02-19T04:32:23.497Z,2.85
2023-02-19T04:34:50.746Z,2.78
2023-02-19T04:37:18.433Z,2.85
2023-02-19T04:39:45.298Z,2.63
2023-02-19T04:42:12.179Z,3.00
2023-02-19T04:44:39.024Z,2.80
2023-02-19T04:47:05.803Z,2.38
2023-02-19T04:49:32.669Z,2.35
2023-02-19T04:51:59.437Z,2.40
2023-02-19T04:54:26.428Z,2.75
2023-02-19T04:56:53.240Z,2.13
2023-02-19T04:59:20.138Z,2.20
2023-02-19T05:01:47.185Z,2.45
2023-02-19T05:04:14.111Z,2.88
2023-02-19T05:06:40.888Z,2.63
2023-02-19T05:09:07.763Z,2.40
2023-02-19T05:11:34.584Z,2.13
2023-02-19T05:14:01.498Z,2.25
2023-02-19T05:16:28.348Z,2.20
2023-02-19T05:18:55.183Z,2.72
2023-02-19T05:21:22.097Z,2.22
2023-02-19T05:23:48.900Z,2.22
2023-02-19T05:26:22.983Z,2.38
2023-02-19T05:28:51.411Z,2.65
2023-02-19T05:31:18.620Z,2.40
2023-02-19T05:33:50.112Z,2.60
2023-02-19T05:36:17.630Z,2.55
2023-02-19T05:38:44.474Z,2.13
2023-02-19T05:41:13.613Z,2.30
2023-02-19T05:43:40.830Z,2.58
2023-02-19T05:46:07.818Z,2.45
2023-02-19T05:48:34.801Z,2.00
2023-02-19T05:51:09.118Z,2.60
2023-02-19T05:53:36.200Z,2.38
2023-02-19T05:56:03.233Z,2.30
2023-02-19T05:58:30.111Z,2.28
2023-02-19T06:00:57.137Z,2.30
2023-02-19T06:03:24.189Z,2.78
2023-02-19T06:05:51.081Z,2.50
2023-02-19T06:08:18.155Z,2.20
2023-02-19T06:10:45.026Z,2.10
2023-02-19T06:13:11.874Z,2.30
2023-02-19T06:15:38.758Z,2.20
2023-02-19T06:18:05.690Z,2.10
2023-02-19T06:20:33.032Z,2.05
2023-02-19T06:22:59.989Z,2.50
2023-02-19T06:25:26.813Z,2.05
2023-02-19T06:27:53.628Z,2.22
2023-02-19T06:30:20.574Z,2.40
2023-02-19T06:32:47.509Z,2.08
2023-02-19T06:35:14.428Z,1.90
2023-02-19T06:37:41.300Z,1.98
2023-02-19T06:40:08.763Z,2.30
2023-02-19T06:42:35.609Z,2.15
2023-02-19T06:45:02.392Z,1.90
2023-02-19T06:47:32.153Z,2.10
2023-02-19T06:49:59.713Z,2.20
2023-02-19T06:52:27.384Z,2.35
2023-02-19T06:54:54.326Z,2.30
2023-02-19T06:57:21.223Z,2.20
2023-02-19T06:59:48.087Z,2.22
2023-02-19T07:02:14.952Z,1.95
2023-02-19T07:04:41.828Z,2.10
2023-02-19T07:07:11.483Z,2.17
2023-02-19T07:09:38.349Z,2.33
2023-02-19T07:12:05.598Z,1.98
2023-02-19T07:14:32.613Z,2.28
2023-02-19T07:16:59.389Z,2.28
2023-02-19T07:19:26.388Z,2.30
2023-02-19T07:21:53.283Z,2.03
2023-02-19T07:24:21.646Z,1.98
2023-02-19T07:26:48.574Z,1.80
2023-02-19T07:29:15.583Z,2.35
2023-02-19T07:31:43.107Z,2.00
2023-02-19T07:34:09.996Z,2.45
2023-02-19T07:36:36.824Z,2.13
2023-02-19T07:39:03.847Z,2.05
2023-02-19T07:41:30.723Z,1.98
2023-02-19T07:43:58.419Z,2.00
2023-02-19T07:46:25.443Z,2.25
2023-02-19T07:48:52.331Z,2.22
2023-02-19T07:51:19.946Z,2.38
2023-02-19T07:53:47.351Z,3.03
2023-02-19T07:56:14.289Z,2.60
2023-02-19T07:58:41.210Z,1.98
2023-02-19T08:01:10.276Z,2.30
2023-02-19T08:03:38.129Z,2.10
2023-02-19T08:06:05.420Z,1.98
2023-02-19T08:08:32.354Z,2.53
2023-02-19T08:11:21.871Z,2.42
2023-02-19T08:13:52.143Z,2.15
2023-02-19T08:16:29.529Z,1.80
2023-02-19T08:19:00.348Z,1.90
2023-02-19T08:21:27.209Z,2.10
2023-02-19T08:23:54.119Z,2.05
2023-02-19T08:26:20.983Z,1.88
2023-02-19T08:28:48.636Z,2.10
2023-02-19T08:31:15.758Z,2.00
2023-02-19T08:33:42.837Z,2.08
2023-02-19T08:36:10.644Z,1.80
2023-02-19T08:38:37.847Z,2.25
2023-02-19T08:41:09.132Z,2.08
2023-02-19T08:43:36.431Z,2.43
2023-02-19T08:46:05.270Z,2.38
2023-02-19T08:48:32.407Z,2.40
2023-02-19T08:51:07.096Z,2.20
2023-02-19T08:53:34.391Z,2.30
2023-02-19T08:56:15.050Z,2.80
2023-02-19T08:58:42.320Z,2.50
2023-02-19T09:01:16.674Z,2.63
2023-02-19T09:03:43.623Z,2.30
2023-02-19T09:06:14.288Z,2.35
2023-02-19T09:08:41.144Z,2.33
2023-02-19T09:11:08.107Z,2.88
2023-02-19T09:13:35.028Z,2.40
2023-02-19T09:16:06.406Z,3.03
2023-02-19T09:18:33.342Z,2.20
2023-02-19T09:21:01.690Z,2.80
2023-02-19T09:23:28.821Z,2.20
2023-02-19T09:26:00.092Z,2.80
2023-02-19T09:28:27.998Z,2.25
2023-02-19T09:30:55.072Z,2.92
2023-02-19T09:33:22.060Z,2.53
2023-02-19T09:35:48.871Z,2.55
2023-02-19T09:38:15.879Z,2.70
2023-02-19T09:40:42.838Z,2.28
2023-02-19T09:43:12.134Z,2.40
2023-02-19T09:45:39.104Z,2.50
2023-02-19T09:48:06.294Z,2.38
2023-02-19T09:50:37.230Z,2.60
2023-02-19T09:53:06.034Z,2.70
2023-02-19T09:55:36.171Z,1.98
2023-02-19T09:58:09.360Z,2.13
2023-02-19T10:00:36.292Z,2.10
2023-02-19T10:03:10.149Z,2.20
2023-02-19T10:05:37.867Z,1.98
2023-02-19T10:08:05.754Z,2.30
2023-02-19T10:10:33.512Z,1.92
2023-02-19T10:13:28.638Z,1.88
2023-02-19T10:15:57.671Z,1.70
2023-02-19T10:18:28.237Z,1.60
2023-02-19T10:20:55.374Z,1.75
2023-02-19T10:23:22.264Z,1.50
2023-02-19T10:25:59.487Z,2.00
2023-02-19T10:28:31.468Z,1.73
2023-02-19T10:30:59.482Z,1.90
2023-02-19T10:33:26.596Z,2.30
2023-02-19T10:36:04.076Z,1.98
2023-02-19T10:38:37.465Z,1.80
2023-02-19T10:41:05.709Z,2.00
2023-02-19T10:43:35.347Z,1.80
2023-02-19T10:46:06.650Z,2.03
2023-02-19T10:48:46.976Z,1.83
2023-02-19T10:51:21.734Z,2.00
2023-02-19T10:54:03.396Z,2.10
2023-02-19T10:56:31.371Z,2.15
2023-02-19T10:59:16.047Z,1.90
2023-02-19T11:02:02.829Z,1.90
2023-02-19T11:04:35.374Z,1.70
2023-02-19T11:07:14.571Z,2.30
2023-02-19T11:09:47.558Z,3.22
2023-02-19T11:12:14.552Z,2.80
2023-02-19T11:14:44.603Z,2.65
2023-02-19T11:17:25.454Z,2.10
2023-02-19T11:19:56.058Z,3.05
2023-02-19T11:22:29.948Z,3.08
2023-02-19T11:24:59.353Z,2.35
2023-02-19T11:27:26.436Z,2.53
2023-02-19T11:29:53.248Z,5.25
2023-02-19T11:32:29.355Z,5.40
2023-02-19T11:35:17.920Z,4.97
2023-02-19T11:38:02.695Z,2.97
2023-02-19T11:40:45.829Z,2.08
2023-02-19T11:43:24.949Z,2.10
2023-02-19T11:46:11.878Z,1.80
2023-02-19T11:48:43.560Z,1.70
2023-02-19T11:51:39.780Z,5.83
2023-02-19T11:54:23.247Z,6.97
2023-02-19T11:57:22.524Z,2.20
2023-02-19T11:59:55.295Z,1.70
2023-02-19T12:02:40.357Z,2.00
2023-02-19T12:05:31.058Z,1.65
2023-02-19T12:08:21.548Z,2.10
2023-02-19T12:10:51.391Z,2.58
2023-02-19T12:13:46.309Z,1.55
2023-02-19T12:16:18.527Z,1.40
2023-02-19T12:19:08.265Z,1.60
2023-02-19T12:22:07.265Z,1.33
2023-02-19T12:25:05.496Z,1.13
2023-02-19T12:27:55.375Z,1.40
2023-02-19T12:30:41.079Z,1.42
2023-02-19T12:33:29.474Z,1.27
2023-02-19T12:36:25.075Z,1.60
2023-02-19T12:39:14.452Z,1.85
2023-02-19T12:41:51.599Z,1.50
2023-02-19T12:44:39.211Z,1.30
2023-02-19T12:47:08.756Z,2.25
2023-02-19T12:49:37.468Z,1.60
2023-02-19T12:52:08.229Z,1.40
2023-02-19T12:54:38.183Z,1.70
2023-02-19T12:57:19.964Z,1.35
2023-02-19T13:00:07.515Z,1.45
2023-02-19T13:02:45.052Z,1.48
2023-02-19T13:05:28.341Z,1.60
2023-02-19T13:08:04.562Z,1.40
2023-02-19T13:10:40.027Z,1.35
2023-02-19T13:13:23.925Z,1.65
2023-02-19T13:16:07.499Z,1.70
2023-02-19T13:18:45.399Z,1.77
2023-02-19T13:21:35.214Z,1.38
2023-02-19T13:24:08.731Z,1.55
2023-02-19T13:26:57.308Z,1.70
2023-02-19T13:29:38.124Z,1.55
2023-02-19T13:32:22.939Z,1.95
2023-02-19T13:35:24.089Z,1.60
2023-02-19T13:37:50.947Z,2.03
2023-02-19T13:40:32.109Z,2.15
2023-02-19T13:43:00.414Z,2.65
2023-02-19T13:45:37.037Z,2.25
2023-02-19T13:48:27.215Z,2.20
2023-02-19T13:51:22.972Z,1.77
2023-02-19T13:53:53.924Z,1.70
2023-02-19T13:56:34.124Z,1.70
2023-02-19T13:59:32.229Z,1.60
2023-02-19T14:02:00.581Z,1.75
2023-02-19T14:04:47.425Z,1.77
2023-02-19T14:07:14.243Z,1.70
2023-02-19T14:09:41.114Z,2.10
2023-02-19T14:12:08.032Z,2.00
2023-02-19T14:14:35.681Z,2.05
2023-02-19T14:17:46.286Z,3.85
2023-02-19T14:20:16.084Z,2.08
2023-02-19T14:22:45.968Z,2.13
2023-02-19T14:25:28.794Z,1.95
2023-02-19T14:28:06.871Z,1.70
2023-02-19T14:30:34.702Z,1.80
2023-02-19T14:33:10.523Z,2.20
2023-02-19T14:35:40.791Z,1.83
2023-02-19T14:38:07.667Z,2.17
2023-02-19T14:40:39.152Z,2.10
2023-02-19T14:43:06.120Z,2.53
2023-02-19T14:45:39.609Z,2.53
2023-02-19T14:48:06.477Z,1.90
2023-02-19T14:50:34.987Z,2.13
2023-02-19T14:53:04.403Z,2.03
2023-02-19T14:55:36.275Z,2.22
2023-02-19T14:58:28.575Z,2.03
2023-02-19T15:00:55.646Z,1.88
2023-02-19T15:03:42.058Z,1.90
2023-02-19T15:06:12.893Z,2.10
2023-02-19T15:08:45.584Z,2.50
2023-02-19T15:11:16.227Z,2.00
2023-02-19T15:13:45.746Z,2.20
2023-02-19T15:16:18.290Z,2.28
2023-02-19T15:18:46.425Z,2.70
2023-02-19T15:21:21.724Z,3.03
2023-02-19T15:23:48.638Z,2.80
2023-02-19T15:26:22.201Z,2.55
2023-02-19T15:29:04.012Z,2.47
2023-02-19T15:31:30.976Z,2.40
2023-02-19T15:33:57.924Z,2.40
2023-02-19T15:36:29.984Z,2.42
2023-02-19T15:39:01.705Z,2.78
2023-02-19T15:41:34.351Z,2.40
2023-02-19T15:44:27.400Z,2.35
2023-02-19T15:46:54.316Z,2.90
2023-02-19T15:49:23.918Z,2.75
2023-02-19T15:51:56.994Z,2.50
2023-02-19T15:54:50.086Z,2.58
2023-02-19T15:57:20.999Z,2.47
2023-02-19T16:00:09.787Z,2.30
2023-02-19T16:02:39.333Z,2.75
2023-02-19T16:05:23.619Z,2.33
2023-02-19T16:08:06.579Z,2.55
2023-02-19T16:10:33.475Z,2.67
2023-02-19T16:13:01.664Z,2.92
2023-02-19T16:15:29.576Z,2.58
2023-02-19T16:17:56.787Z,2.75
2023-02-19T16:20:28.152Z,3.28
2023-02-19T16:23:03.186Z,3.72
2023-02-19T16:25:48.131Z,3.28
2023-02-19T16:28:25.675Z,2.80
2023-02-19T16:31:00.262Z,3.10
2023-02-19T16:33:34.625Z,2.38
2023-02-19T16:36:20.184Z,2.70
2023-02-19T16:39:07.347Z,3.03
2023-02-19T16:41:40.118Z,2.53
2023-02-19T16:44:25.038Z,2.40
2023-02-19T16:46:58.504Z,2.67
2023-02-19T16:49:25.455Z,2.72
2023-02-19T16:51:53.764Z,3.00
2023-02-19T16:54:20.712Z,2.60
2023-02-19T16:56:47.607Z,2.20
2023-02-19T16:59:14.450Z,2.92
2023-02-19T17:01:41.389Z,2.20
2023-02-19T17:04:09.705Z,2.38
2023-02-19T17:06:37.880Z,2.10
2023-02-19T17:09:06.547Z,1.98
2023-02-19T17:11:33.423Z,2.35
2023-02-19T17:14:00.223Z,2.50
2023-02-19T17:16:28.740Z,2.92
2023-02-19T17:18:55.731Z,2.75
2023-02-19T17:21:25.418Z,6.40
2023-02-19T17:23:52.308Z,3.35
2023-02-19T17:26:23.587Z,3.13
2023-02-19T17:28:50.514Z,2.47
2023-02-19T17:31:17.675Z,2.53
2023-02-19T17:33:44.603Z,3.00
2023-02-19T17:36:22.509Z,2.72
2023-02-19T17:38:49.494Z,2.80
2023-02-19T17:41:16.360Z,3.20
2023-02-19T17:43:43.325Z,3.28
2023-02-19T17:46:15.589Z,3.40
2023-02-19T17:48:42.477Z,3.05
2023-02-19T17:51:09.688Z,3.20
2023-02-19T17:53:36.740Z,3.05
2023-02-19T17:56:03.730Z,3.00
2023-02-19T17:58:30.841Z,2.85
2023-02-19T18:00:58.101Z,3.20
2023-02-19T18:03:24.960Z,2.30
2023-02-19T18:05:51.893Z,3.20
2023-02-19T18:08:18.716Z,2.92
2023-02-19T18:10:45.580Z,2.80
2023-02-19T18:13:12.554Z,3.42
2023-02-19T18:15:39.524Z,3.70
2023-02-19T18:18:06.329Z,3.75
2023-02-19T18:20:33.262Z,4.18
2023-02-19T18:23:00.186Z,4.30
2023-02-19T18:25:27.068Z,4.38
2023-02-19T18:27:53.940Z,4.55
2023-02-19T18:30:22.673Z,4.68
2023-02-19T18:32:50.019Z,5.47
2023-02-19T18:35:17.750Z,4.70
2023-02-19T18:37:44.915Z,5.30
2023-02-19T18:40:12.176Z,4.88
2023-02-19T18:42:39.910Z,5.28
2023-02-19T18:45:07.061Z,5.00
2023-02-19T18:47:34.002Z,4.78
2023-02-19T18:50:01.154Z,5.03
2023-02-19T18:52:28.100Z,5.30
2023-02-19T18:54:55.480Z,5.47
2023-02-19T18:57:25.476Z,4.88
2023-02-19T18:59:52.422Z,4.50
2023-02-19T19:02:19.557Z,5.07
2023-02-19T19:04:57.097Z,4.70
2023-02-19T19:07:23.986Z,4.25
2023-02-19T19:09:50.827Z,4.45
2023-02-19T19:12:17.740Z,4.60
2023-02-19T19:14:44.962Z,4.80
2023-02-19T19:17:11.831Z,4.93
2023-02-19T19:19:38.835Z,5.68
2023-02-19T19:22:05.710Z,6.07
2023-02-19T19:24:32.740Z,5.28
2023-02-19T19:26:59.723Z,6.18
2023-02-19T19:29:26.812Z,5.70
2023-02-19T19:31:53.722Z,5.00
2023-02-19T19:34:20.695Z,5.13
2023-02-19T19:36:47.668Z,5.28
2023-02-19T19:39:14.518Z,5.25
2023-02-19T19:41:41.511Z,5.38
2023-02-19T19:44:08.650Z,5.35
2023-02-19T19:46:35.571Z,5.72
2023-02-19T19:49:02.475Z,5.28
2023-02-19T19:51:33.367Z,5.70
2023-02-19T19:54:01.067Z,5.65
2023-02-19T19:56:27.984Z,5.30
2023-02-19T19:58:54.856Z,5.80
2023-02-19T20:01:23.075Z,5.60
2023-02-19T20:03:51.180Z,5.63
2023-02-19T20:06:28.203Z,4.93
2023-02-19T20:08:55.493Z,5.93
2023-02-19T20:11:22.814Z,5.55
2023-02-19T20:13:49.811Z,5.90
2023-02-19T20:16:16.751Z,5.38
2023-02-19T20:18:43.615Z,6.00
2023-02-19T20:21:10.914Z,6.07
2023-02-19T20:23:39.538Z,5.35
2023-02-19T20:26:06.678Z,4.80
2023-02-19T20:28:33.545Z,5.57
2023-02-19T20:31:00.511Z,5.95
2023-02-19T20:33:27.387Z,5.28
2023-02-19T20:35:54.467Z,5.03
2023-02-19T20:38:21.289Z,5.13
2023-02-19T20:40:48.171Z,5.00
2023-02-19T20:43:15.058Z,4.80
2023-02-19T20:45:45.685Z,4.82
2023-02-19T20:48:15.893Z,5.03
2023-02-19T20:50:42.824Z,5.22
2023-02-19T20:53:10.232Z,5.40
2023-02-19T20:55:37.228Z,5.22
2023-02-19T20:58:04.064Z,4.57
2023-02-19T21:00:30.916Z,4.68
2023-02-19T21:02:57.834Z,4.53
2023-02-19T21:05:24.719Z,4.45
2023-02-19T21:07:51.654Z,4.75
2023-02-19T21:10:18.676Z,4.63
2023-02-19T21:12:45.545Z,4.28
2023-02-19T21:15:12.400Z,4.43
2023-02-19T21:17:39.258Z,4.10
2023-02-19T21:20:06.784Z,4.43
2023-02-19T21:22:34.492Z,4.38
2023-02-19T21:25:01.377Z,3.95
2023-02-19T21:27:28.302Z,4.57
2023-02-19T21:29:56.260Z,4.20
2023-02-19T21:32:23.289Z,4.38
2023-02-19T21:34:50.180Z,4.20
2023-02-19T21:37:17.059Z,3.85
2023-02-19T21:39:44.448Z,3.55
2023-02-19T21:42:11.263Z,3.90
2023-02-19T21:44:38.053Z,4.25
2023-02-19T21:47:04.968Z,4.15
2023-02-19T21:49:31.917Z,3.50
2023-02-19T21:51:58.801Z,3.72
2023-02-19T21:54:25.677Z,4.30
2023-02-19T21:56:53.200Z,3.72
2023-02-19T21:59:20.513Z,3.58
2023-02-19T22:01:47.383Z,3.55
2023-02-19T22:04:15.759Z,3.35
2023-02-19T22:06:42.697Z,3.47
2023-02-19T22:09:09.849Z,3.78
2023-02-19T22:11:36.762Z,3.10
2023-02-19T22:14:03.694Z,3.63
2023-02-19T22:16:30.747Z,3.42
2023-02-19T22:18:58.752Z,3.53
2023-02-19T22:21:27.341Z,3.33
2023-02-19T22:23:54.409Z,3.92
2023-02-19T22:26:31.931Z,3.38
2023-02-19T22:28:59.594Z,3.10
2023-02-19T22:31:27.396Z,4.00
2023-02-19T22:33:54.385Z,4.00
2023-02-19T22:36:25.807Z,3.53
2023-02-19T22:38:52.944Z,3.47
2023-02-19T22:41:20.134Z,3.22
2023-02-19T22:43:47.207Z,3.38
2023-02-19T22:46:16.565Z,4.05
2023-02-19T22:48:43.500Z,3.30
2023-02-19T22:51:15.398Z,3.45
2023-02-19T22:53:46.001Z,3.80
2023-02-19T22:56:13.605Z,3.47
2023-02-19T22:58:40.950Z,3.70
2023-02-19T23:01:08.261Z,3.33
2023-02-19T23:03:35.107Z,3.40
2023-02-19T23:06:05.149Z,3.55
2023-02-19T23:08:32.087Z,3.15
2023-02-19T23:10:59.021Z,3.60
2023-02-19T23:13:25.891Z,3.50
2023-02-19T23:15:52.666Z,3.70
2023-02-19T23:18:19.564Z,3.72
2023-02-19T23:20:46.381Z,3.25
2023-02-19T23:23:13.284Z,3.58
2023-02-19T23:25:40.149Z,3.97
2023-02-19T23:28:07.032Z,3.40
2023-02-19T23:30:34.009Z,3.40
2023-02-19T23:33:00.943Z,3.50
2023-02-19T23:35:27.874Z,3.22
2023-02-19T23:37:55.883Z,3.70
2023-02-19T23:40:22.738Z,3.08
2023-02-19T23:42:49.622Z,3.40
2023-02-19T23:45:16.991Z,3.60
2023-02-19T23:47:43.877Z,3.33
2023-02-19T23:50:10.794Z,3.03
2023-02-19T23:52:37.649Z,3.10
2023-02-19T23:55:04.799Z,3.17
2023-02-19T23:57:31.656Z,3.15
2023-02-19T23:59:58.482Z,3.08
